Masset, Canada
Current Conditions -  °F | °C
As of 4:00 PM on Saturday 25 Oct 2014 (Local Time) from CZMT Reporting Station
Scattered Clouds Scattered Clouds  
Wind Chill: 52°   Ceiling: Unl
Heat Index: 52°   Visibility: 15mi
Dew Point: 43°   Wind: 13mph
Humidity: 71%   Direction: 340°NNW
Pressure: 29.55"   Gusts: NA
Location:  54.02°N, 132.15°W
Report Text: CZMT 252300Z 34011KT 15SM FEW015 SCT210 11/06 A2955 RMK CU1CI2 SLP006
Loading
Personal Weather Stations






























Interactive Weather Map
Tropical Storm Tracking
New forecast layout! Learn more

10-Day Weather Forecast

Advertisements
Track Severe Weather on mobile